createdAt,value
2022-08-03T00:02:19.383Z,19.01
2022-08-03T00:04:48.900Z,19.01
2022-08-03T00:07:19.056Z,18.98
2022-08-03T00:09:48.487Z,19.00
2022-08-03T00:12:18.075Z,19.01
2022-08-03T00:14:47.807Z,18.98
2022-08-03T00:17:17.492Z,18.98
2022-08-03T00:19:46.981Z,18.98
2022-08-03T00:22:16.985Z,18.96
2022-08-03T00:24:46.561Z,18.90
2022-08-03T00:27:16.657Z,18.80
2022-08-03T00:29:57.596Z,18.79
2022-08-03T00:32:29.466Z,18.76
2022-08-03T00:34:59.808Z,18.67
2022-08-03T00:37:41.202Z,18.67
2022-08-03T00:40:15.279Z,18.65
2022-08-03T00:43:00.718Z,18.62
2022-08-03T00:45:31.898Z,18.61
2022-08-03T00:48:01.818Z,18.60
2022-08-03T00:50:34.746Z,18.56
2022-08-03T00:53:06.012Z,18.53
2022-08-03T00:55:35.446Z,18.45
2022-08-03T00:58:06.711Z,18.34
2022-08-03T01:00:39.023Z,18.31
2022-08-03T01:03:09.444Z,18.31
2022-08-03T01:05:43.230Z,18.28
2022-08-03T01:08:34.588Z,18.26
2022-08-03T01:11:15.264Z,18.21
2022-08-03T01:14:18.708Z,18.21
2022-08-03T01:17:00.288Z,18.18
2022-08-03T01:19:46.737Z,18.10
2022-08-03T01:22:40.465Z,18.00
2022-08-03T01:25:31.824Z,18.01
2022-08-03T01:28:17.073Z,17.93
2022-08-03T01:30:48.779Z,17.95
2022-08-03T01:33:23.650Z,17.92
2022-08-03T01:36:08.775Z,17.86
2022-08-03T01:38:39.784Z,17.80
2022-08-03T01:41:13.211Z,17.76
2022-08-03T01:44:27.698Z,17.70
2022-08-03T01:46:34.191Z,17.64
2022-08-03T01:49:09.156Z,17.58
2022-08-03T01:52:03.447Z,17.45
2022-08-03T01:54:31.253Z,17.36
2022-08-03T01:57:01.432Z,17.41
2022-08-03T01:59:32.217Z,17.46
2022-08-03T02:02:32.118Z,17.49
2022-08-03T02:04:53.414Z,17.51
2022-08-03T02:07:22.786Z,17.42
2022-08-03T02:09:54.007Z,17.34
2022-08-03T02:12:25.287Z,17.36
2022-08-03T02:14:54.844Z,17.34
2022-08-03T02:17:39.304Z,17.29
2022-08-03T02:20:10.557Z,17.31
2022-08-03T02:22:42.535Z,17.31
2022-08-03T02:25:18.438Z,17.28
2022-08-03T02:28:30.212Z,17.33
2022-08-03T02:30:59.728Z,17.34
2022-08-03T02:33:35.309Z,17.38
2022-08-03T02:36:05.163Z,17.38
2022-08-03T02:38:37.495Z,17.35
2022-08-03T02:41:11.062Z,17.26
2022-08-03T02:44:07.221Z,17.13
2022-08-03T02:46:36.112Z,17.03
2022-08-03T02:49:40.551Z,17.02
2022-08-03T02:51:56.260Z,17.07
2022-08-03T02:54:26.797Z,17.14
2022-08-03T02:56:59.977Z,17.11
2022-08-03T02:59:31.416Z,17.02
2022-08-03T03:02:03.096Z,16.94
2022-08-03T03:04:33.565Z,16.94
2022-08-03T03:07:04.454Z,16.93
2022-08-03T03:09:41.646Z,16.94
2022-08-03T03:12:13.735Z,16.99
2022-08-03T03:14:43.303Z,16.96
2022-08-03T03:17:14.079Z,16.99
2022-08-03T03:19:45.533Z,16.99
2022-08-03T03:22:16.054Z,16.98
2022-08-03T03:24:46.105Z,16.99
2022-08-03T03:27:17.451Z,16.96
2022-08-03T03:29:47.138Z,16.95
2022-08-03T03:32:17.103Z,16.91
2022-08-03T03:34:46.849Z,16.91
2022-08-03T03:37:16.117Z,16.93
2022-08-03T03:39:45.461Z,16.93
2022-08-03T03:42:14.811Z,16.95
2022-08-03T03:44:44.239Z,16.98
2022-08-03T03:47:13.527Z,16.93
2022-08-03T03:49:44.145Z,16.82
2022-08-03T03:52:14.156Z,16.73
2022-08-03T03:54:44.833Z,16.70
2022-08-03T03:57:14.705Z,16.69
2022-08-03T03:59:45.198Z,16.64
2022-08-03T04:02:15.104Z,16.51
2022-08-03T04:04:57.086Z,16.45
2022-08-03T04:07:40.032Z,16.44
2022-08-03T04:10:26.745Z,16.45
2022-08-03T04:12:57.290Z,16.49
2022-08-03T04:15:26.977Z,16.51
2022-08-03T04:17:58.849Z,16.50
2022-08-03T04:20:31.132Z,16.55
2022-08-03T04:23:02.674Z,16.60
2022-08-03T04:25:34.160Z,16.64
2022-08-03T04:28:29.496Z,16.67
2022-08-03T04:30:55.613Z,16.70
2022-08-03T04:33:25.646Z,16.72
2022-08-03T04:36:03.405Z,16.75
2022-08-03T04:38:34.510Z,16.75
2022-08-03T04:41:04.491Z,16.76
2022-08-03T04:43:36.016Z,16.80
2022-08-03T04:46:05.695Z,16.85
2022-08-03T04:48:35.018Z,16.91
2022-08-03T04:51:04.591Z,16.93
2022-08-03T04:53:33.875Z,16.95
2022-08-03T04:56:09.215Z,17.00
2022-08-03T04:58:38.500Z,17.06
2022-08-03T05:01:07.924Z,17.14
2022-08-03T05:03:37.405Z,17.26
2022-08-03T05:06:11.026Z,17.33
2022-08-03T05:08:46.548Z,17.43
2022-08-03T05:11:16.289Z,17.54
2022-08-03T05:13:46.195Z,17.68
2022-08-03T05:16:16.067Z,17.79
2022-08-03T05:18:46.093Z,17.92
2022-08-03T05:21:16.983Z,18.06
2022-08-03T05:23:47.481Z,18.19
2022-08-03T05:26:16.857Z,18.29
2022-08-03T05:28:51.007Z,18.39
2022-08-03T05:31:21.095Z,18.50
2022-08-03T05:33:50.679Z,18.61
2022-08-03T05:36:19.977Z,18.74
2022-08-03T05:38:49.191Z,18.90
2022-08-03T05:41:22.906Z,19.04
2022-08-03T05:43:54.563Z,19.18
2022-08-03T05:46:25.177Z,19.33
2022-08-03T05:48:54.559Z,19.55
2022-08-03T05:51:23.892Z,19.78
2022-08-03T05:53:53.140Z,20.00
2022-08-03T05:56:25.901Z,20.33
2022-08-03T05:58:55.651Z,20.63
2022-08-03T06:01:25.279Z,20.86
2022-08-03T06:03:54.796Z,21.07
2022-08-03T06:06:24.042Z,21.29
2022-08-03T06:08:53.325Z,21.41
2022-08-03T06:11:22.588Z,21.61
2022-08-03T06:13:51.873Z,21.75
2022-08-03T06:16:21.096Z,21.91
2022-08-03T06:18:50.449Z,22.00
2022-08-03T06:21:19.711Z,22.07
2022-08-03T06:23:54.601Z,22.23
2022-08-03T06:26:25.888Z,22.39
2022-08-03T06:28:55.505Z,22.52
2022-08-03T06:31:33.142Z,22.57
2022-08-03T06:34:33.715Z,22.67
2022-08-03T06:36:58.459Z,22.80
2022-08-03T06:39:31.310Z,22.93
2022-08-03T06:42:00.752Z,23.06
2022-08-03T06:44:29.997Z,23.14
2022-08-03T06:46:59.292Z,23.31
2022-08-03T06:49:28.674Z,23.47
2022-08-03T06:52:06.042Z,23.57
2022-08-03T06:54:36.287Z,23.78
2022-08-03T06:57:06.039Z,24.00
2022-08-03T07:00:08.447Z,24.19
2022-08-03T07:02:24.670Z,24.37
2022-08-03T07:04:57.617Z,24.66
2022-08-03T07:07:26.914Z,24.97
2022-08-03T07:09:57.785Z,25.27
2022-08-03T07:12:28.071Z,25.50
2022-08-03T07:15:01.275Z,25.82
2022-08-03T07:17:33.090Z,25.95
2022-08-03T07:20:03.163Z,26.15
2022-08-03T07:22:32.515Z,26.35
2022-08-03T07:25:02.018Z,26.64
2022-08-03T07:27:31.430Z,26.98
2022-08-03T07:30:01.721Z,27.24
2022-08-03T07:32:31.834Z,27.53
2022-08-03T07:35:01.759Z,27.79
2022-08-03T07:37:32.149Z,28.09
2022-08-03T07:40:03.082Z,28.37
2022-08-03T07:42:32.905Z,28.53
2022-08-03T07:45:02.844Z,28.85
2022-08-03T07:47:36.033Z,29.09
2022-08-03T07:50:06.641Z,29.32
2022-08-03T07:52:53.712Z,29.45
2022-08-03T07:55:25.660Z,29.59
2022-08-03T07:58:09.404Z,29.74
2022-08-03T08:00:38.989Z,30.02
2022-08-03T08:03:08.340Z,30.23
2022-08-03T08:05:37.692Z,30.40
2022-08-03T08:08:07.346Z,30.48
2022-08-03T08:10:36.686Z,30.51
2022-08-03T08:13:06.747Z,30.70
2022-08-03T08:15:36.074Z,30.78
2022-08-03T08:18:12.955Z,30.77
2022-08-03T08:20:42.481Z,30.58
2022-08-03T08:23:37.948Z,30.65
2022-08-03T08:26:02.349Z,30.81
2022-08-03T08:28:33.690Z,31.03
2022-08-03T08:31:04.113Z,31.03
2022-08-03T08:34:02.676Z,31.16
2022-08-03T08:36:24.194Z,31.19
2022-08-03T08:38:53.451Z,31.20
2022-08-03T08:41:22.747Z,31.39
2022-08-03T08:43:52.068Z,31.44
2022-08-03T08:46:23.731Z,31.68
2022-08-03T08:48:54.077Z,31.87
2022-08-03T08:51:24.828Z,31.86
2022-08-03T08:54:14.211Z,32.04
2022-08-03T08:56:44.307Z,32.25
2022-08-03T08:59:13.683Z,32.37
2022-08-03T09:01:42.958Z,32.30
2022-08-03T09:04:12.369Z,32.02
2022-08-03T09:06:47.321Z,31.92
2022-08-03T09:10:08.147Z,31.86
2022-08-03T09:12:39.187Z,31.70
2022-08-03T09:15:19.929Z,31.49
2022-08-03T09:17:51.268Z,31.45
2022-08-03T09:20:22.217Z,31.32
2022-08-03T09:22:59.865Z,31.37
2022-08-03T09:25:34.605Z,31.49
2022-08-03T09:28:09.117Z,31.59
2022-08-03T09:30:39.358Z,31.67
2022-08-03T09:33:13.858Z,31.65
2022-08-03T09:35:53.758Z,31.56
2022-08-03T09:38:27.649Z,31.40
2022-08-03T09:41:00.614Z,31.47
2022-08-03T09:43:30.860Z,31.45
2022-08-03T09:46:07.827Z,31.43
2022-08-03T09:48:37.458Z,31.39
2022-08-03T09:51:12.920Z,31.40
2022-08-03T09:53:59.791Z,31.50
2022-08-03T09:56:42.432Z,31.57
2022-08-03T09:59:12.906Z,31.50
2022-08-03T10:01:44.324Z,31.45
2022-08-03T10:04:17.621Z,31.28
2022-08-03T10:06:48.026Z,31.27
2022-08-03T10:09:19.798Z,31.31
2022-08-03T10:11:49.840Z,31.40
2022-08-03T10:14:22.668Z,31.57
2022-08-03T10:16:52.392Z,31.58
2022-08-03T10:19:21.786Z,31.77
2022-08-03T10:21:53.648Z,31.72
2022-08-03T10:24:31.040Z,31.86
2022-08-03T10:27:05.637Z,31.90
2022-08-03T10:29:40.984Z,32.03
2022-08-03T10:32:14.684Z,32.05
2022-08-03T10:34:45.363Z,32.13
2022-08-03T10:37:15.121Z,32.10
2022-08-03T10:39:53.643Z,32.18
2022-08-03T10:42:27.299Z,32.21
2022-08-03T10:45:10.136Z,32.22
2022-08-03T10:47:39.665Z,32.23
2022-08-03T10:50:09.773Z,32.22
2022-08-03T10:52:41.397Z,32.25
2022-08-03T10:55:49.283Z,32.32
2022-08-03T10:58:30.573Z,32.41
2022-08-03T11:01:00.267Z,32.13
2022-08-03T11:03:29.559Z,31.92
2022-08-03T11:06:20.018Z,31.91
2022-08-03T11:08:50.496Z,31.90
2022-08-03T11:11:19.643Z,31.96
2022-08-03T11:14:14.208Z,32.02
2022-08-03T11:16:47.946Z,31.98
2022-08-03T11:19:22.525Z,31.87
2022-08-03T11:21:51.779Z,31.60
2022-08-03T11:24:39.498Z,31.63
2022-08-03T11:27:18.092Z,31.76
2022-08-03T11:30:04.268Z,31.93
2022-08-03T11:32:48.210Z,32.08
2022-08-03T11:35:18.969Z,32.05
2022-08-03T11:38:03.545Z,32.12
2022-08-03T11:40:52.722Z,32.08
2022-08-03T11:43:28.988Z,32.12
2022-08-03T11:46:04.293Z,32.19
2022-08-03T11:48:44.049Z,32.33
2022-08-03T11:51:29.817Z,32.43
2022-08-03T11:54:06.122Z,32.52
2022-08-03T11:56:52.591Z,32.50
2022-08-03T11:59:34.837Z,32.36
2022-08-03T12:02:16.476Z,32.24
2022-08-03T12:04:58.375Z,32.11
2022-08-03T12:08:03.046Z,32.20
2022-08-03T12:10:17.971Z,32.25
2022-08-03T12:12:47.305Z,32.30
2022-08-03T12:15:17.352Z,32.26
2022-08-03T12:17:46.679Z,32.27
2022-08-03T12:20:35.307Z,32.32
2022-08-03T12:23:07.049Z,32.39
2022-08-03T12:25:39.657Z,32.40
2022-08-03T12:28:30.345Z,32.23
2022-08-03T12:31:09.531Z,31.99
2022-08-03T12:33:59.302Z,31.98
2022-08-03T12:36:29.800Z,32.02
2022-08-03T12:39:01.698Z,32.14
2022-08-03T12:41:36.618Z,32.26
2022-08-03T12:44:07.475Z,32.34
2022-08-03T12:46:41.755Z,32.40
2022-08-03T12:49:15.622Z,32.42
2022-08-03T12:51:44.853Z,32.48
2022-08-03T12:54:24.528Z,32.51
2022-08-03T12:57:16.005Z,32.44
2022-08-03T12:59:52.775Z,32.40
2022-08-03T13:02:25.199Z,32.50
2022-08-03T13:04:57.589Z,32.51
2022-08-03T13:07:26.927Z,32.57
2022-08-03T13:09:59.221Z,32.62
2022-08-03T13:12:31.773Z,32.49
2022-08-03T13:15:02.690Z,32.31
2022-08-03T13:17:31.925Z,32.31
2022-08-03T13:20:01.241Z,32.33
2022-08-03T13:22:31.147Z,32.38
2022-08-03T13:25:01.570Z,32.45
2022-08-03T13:28:03.508Z,32.48
2022-08-03T13:30:29.795Z,32.53
2022-08-03T13:33:01.453Z,32.55
2022-08-03T13:35:30.723Z,32.57
2022-08-03T13:37:59.991Z,32.51
2022-08-03T13:40:34.417Z,32.48
2022-08-03T13:43:07.685Z,32.46
2022-08-03T13:45:36.953Z,32.47
2022-08-03T13:48:09.536Z,32.54
2022-08-03T13:50:42.950Z,32.55
2022-08-03T13:53:12.568Z,32.53
2022-08-03T13:55:41.820Z,32.50
2022-08-03T13:58:12.479Z,32.45
2022-08-03T14:00:42.499Z,32.39
2022-08-03T14:03:14.498Z,32.40
2022-08-03T14:05:45.492Z,32.43
2022-08-03T14:08:15.030Z,32.44
2022-08-03T14:10:46.022Z,32.50
2022-08-03T14:13:18.005Z,32.44
2022-08-03T14:15:49.711Z,32.35
2022-08-03T14:18:27.658Z,32.33
2022-08-03T14:21:06.015Z,32.35
2022-08-03T14:23:36.363Z,32.30
2022-08-03T14:26:05.860Z,32.29
2022-08-03T14:28:35.296Z,32.38
2022-08-03T14:31:08.530Z,32.40
2022-08-03T14:33:55.725Z,32.40
2022-08-03T14:36:25.472Z,32.39
2022-08-03T14:38:58.229Z,32.39
2022-08-03T14:41:30.501Z,32.33
2022-08-03T14:44:00.549Z,32.33
2022-08-03T14:46:31.655Z,32.36
2022-08-03T14:50:10.339Z,32.32
2022-08-03T14:51:53.607Z,32.30
2022-08-03T14:54:23.337Z,32.22
2022-08-03T14:56:52.975Z,32.18
2022-08-03T14:59:22.237Z,32.16
2022-08-03T15:02:04.728Z,32.21
2022-08-03T15:04:35.837Z,32.26
2022-08-03T15:07:05.071Z,32.30
2022-08-03T15:09:34.670Z,32.32
2022-08-03T15:12:04.094Z,32.37
2022-08-03T15:14:34.914Z,32.37
2022-08-03T15:17:07.465Z,32.27
2022-08-03T15:20:01.641Z,32.24
2022-08-03T15:22:34.762Z,32.22
2022-08-03T15:26:29.083Z,32.15
2022-08-03T15:28:03.848Z,32.13
2022-08-03T15:30:37.023Z,32.04
2022-08-03T15:33:06.385Z,31.97
2022-08-03T15:35:35.829Z,31.92
2022-08-03T15:38:09.176Z,31.89
2022-08-03T15:40:39.142Z,31.77
2022-08-03T15:43:08.392Z,31.74
2022-08-03T15:45:37.623Z,31.66
2022-08-03T15:48:08.323Z,31.60
2022-08-03T15:50:37.693Z,31.57
2022-08-03T15:53:07.795Z,31.57
2022-08-03T15:55:37.059Z,31.49
2022-08-03T15:59:03.156Z,31.49
2022-08-03T16:00:56.979Z,31.41
2022-08-03T16:03:28.436Z,31.40
2022-08-03T16:05:57.980Z,31.43
2022-08-03T16:08:27.238Z,31.43
2022-08-03T16:10:56.523Z,31.43
2022-08-03T16:14:13.552Z,31.43
2022-08-03T16:16:16.413Z,31.42
2022-08-03T16:18:45.655Z,31.38
2022-08-03T16:21:19.314Z,31.36
2022-08-03T16:23:49.627Z,31.35
2022-08-03T16:26:18.857Z,31.36
2022-08-03T16:28:48.926Z,31.37
2022-08-03T16:31:18.202Z,31.37
2022-08-03T16:33:47.516Z,31.35
2022-08-03T16:36:16.734Z,31.30
2022-08-03T16:38:46.094Z,31.28
2022-08-03T16:41:15.353Z,31.28
2022-08-03T16:43:44.589Z,31.27
2022-08-03T16:46:13.813Z,31.28
2022-08-03T16:48:43.277Z,31.25
2022-08-03T16:51:12.622Z,31.27
2022-08-03T16:54:05.115Z,31.24
2022-08-03T16:56:31.311Z,31.22
2022-08-03T16:59:06.536Z,31.20
2022-08-03T17:01:37.915Z,31.20
2022-08-03T17:04:07.569Z,31.19
2022-08-03T17:06:44.889Z,31.15
2022-08-03T17:09:19.089Z,31.12
2022-08-03T17:11:52.379Z,31.07
2022-08-03T17:14:29.242Z,31.05
2022-08-03T17:17:01.617Z,31.04
2022-08-03T17:19:32.473Z,30.99
2022-08-03T17:22:07.303Z,30.96
2022-08-03T17:24:41.523Z,30.94
2022-08-03T17:28:41.392Z,30.87
2022-08-03T17:30:15.936Z,30.79
2022-08-03T17:32:56.596Z,30.75
2022-08-03T17:35:36.416Z,30.69
2022-08-03T17:38:13.819Z,30.63
2022-08-03T17:44:14.170Z,30.54
2022-08-03T17:46:23.949Z,30.49
2022-08-03T17:48:54.146Z,30.46
2022-08-03T17:51:32.793Z,30.41
2022-08-03T17:54:18.168Z,30.38
2022-08-03T17:57:00.272Z,30.30
2022-08-03T18:00:29.612Z,30.29
2022-08-03T18:03:18.391Z,30.24
2022-08-03T18:06:11.574Z,30.23
2022-08-03T18:08:53.424Z,30.19
2022-08-03T18:11:35.569Z,30.12
2022-08-03T18:14:27.361Z,29.98
2022-08-03T18:17:04.043Z,29.88
2022-08-03T18:20:02.610Z,29.77
2022-08-03T18:22:30.560Z,29.68
2022-08-03T18:25:01.625Z,29.56
2022-08-03T18:27:42.660Z,29.48
2022-08-03T18:30:16.510Z,29.42
2022-08-03T18:33:01.066Z,29.37
2022-08-03T18:35:53.326Z,29.32
2022-08-03T18:38:24.055Z,29.28
2022-08-03T18:40:53.309Z,29.23
2022-08-03T18:43:46.464Z,29.18
2022-08-03T18:46:26.309Z,29.06
2022-08-03T18:49:14.378Z,29.00
2022-08-03T18:51:47.305Z,28.94
2022-08-03T18:54:45.898Z,28.88
2022-08-03T18:57:16.851Z,28.76
2022-08-03T19:00:02.408Z,28.70
2022-08-03T19:02:36.884Z,28.63
2022-08-03T19:05:11.406Z,28.56
2022-08-03T19:07:41.456Z,28.48
2022-08-03T19:10:15.859Z,28.41
2022-08-03T19:12:56.021Z,28.36
2022-08-03T19:15:41.283Z,28.29
2022-08-03T19:18:12.399Z,28.21
2022-08-03T19:20:47.135Z,28.13
2022-08-03T19:23:17.144Z,28.05
2022-08-03T19:25:47.062Z,27.98
2022-08-03T19:28:19.189Z,27.91
2022-08-03T19:30:59.543Z,27.81
2022-08-03T19:33:33.511Z,27.72
2022-08-03T19:36:28.773Z,27.62
2022-08-03T19:38:59.132Z,27.54
2022-08-03T19:41:42.122Z,27.44
2022-08-03T19:44:19.985Z,27.33
2022-08-03T19:46:54.027Z,27.22
2022-08-03T19:50:05.128Z,27.13
2022-08-03T19:52:20.578Z,27.04
2022-08-03T19:54:55.255Z,26.98
2022-08-03T19:57:27.332Z,26.91
2022-08-03T19:59:58.546Z,26.83
2022-08-03T20:02:32.999Z,26.76
2022-08-03T20:05:02.301Z,26.68
2022-08-03T20:07:35.161Z,26.60
2022-08-03T20:10:08.985Z,26.56
2022-08-03T20:12:39.399Z,26.46
2022-08-03T20:15:10.864Z,26.37
2022-08-03T20:17:57.025Z,26.25
2022-08-03T20:20:33.442Z,26.12
2022-08-03T20:23:06.851Z,26.04
2022-08-03T20:25:57.091Z,25.94
2022-08-03T20:28:33.774Z,25.86
2022-08-03T20:31:03.084Z,25.78
2022-08-03T20:33:46.428Z,25.71
2022-08-03T20:36:18.583Z,25.62
2022-08-03T20:38:52.038Z,25.56
2022-08-03T20:41:23.037Z,25.50
2022-08-03T20:43:52.314Z,25.46
2022-08-03T20:46:32.105Z,25.44
2022-08-03T20:49:08.408Z,25.39
2022-08-03T20:51:49.895Z,25.35
2022-08-03T20:54:30.853Z,25.29
2022-08-03T20:57:05.108Z,25.27
2022-08-03T20:59:50.420Z,25.23
2022-08-03T21:02:30.272Z,25.16
2022-08-03T21:05:08.515Z,25.09
2022-08-03T21:08:07.867Z,25.02
2022-08-03T21:10:38.437Z,24.88
2022-08-03T21:12:59.219Z,30.58
2022-08-03T21:13:17.730Z,24.85
2022-08-03T21:16:12.410Z,24.80
2022-08-03T21:18:46.482Z,24.74
2022-08-03T21:21:19.413Z,24.69
2022-08-03T21:23:52.761Z,24.62
2022-08-03T21:26:24.168Z,24.55
2022-08-03T21:28:58.197Z,24.48
2022-08-03T21:31:28.229Z,24.46
2022-08-03T21:33:59.357Z,24.41
2022-08-03T21:36:30.591Z,24.36
2022-08-03T21:39:00.432Z,24.29
2022-08-03T21:41:31.610Z,24.28
2022-08-03T21:44:01.907Z,24.29
2022-08-03T21:46:36.740Z,24.31
2022-08-03T21:49:51.958Z,24.31
2022-08-03T21:52:01.389Z,24.31
2022-08-03T21:54:46.009Z,24.32
2022-08-03T21:57:22.165Z,24.31
2022-08-03T21:59:59.830Z,24.31
2022-08-03T22:02:32.509Z,24.27
2022-08-03T22:05:04.968Z,24.22
2022-08-03T22:07:35.837Z,24.17
2022-08-03T22:10:08.350Z,24.08
2022-08-03T22:12:38.003Z,24.02
2022-08-03T22:15:13.540Z,23.97
2022-08-03T22:17:55.007Z,23.92
2022-08-03T22:20:26.730Z,23.84
2022-08-03T22:22:59.227Z,23.79
2022-08-03T22:25:34.249Z,23.72
2022-08-03T22:28:11.172Z,23.66
2022-08-03T22:30:41.909Z,23.56
2022-08-03T22:33:12.583Z,23.49
2022-08-03T22:35:48.493Z,23.40
2022-08-03T22:38:18.860Z,23.36
2022-08-03T22:40:51.427Z,23.33
2022-08-03T22:43:26.835Z,23.31
2022-08-03T22:46:09.554Z,23.27
2022-08-03T22:48:43.163Z,23.18
2022-08-03T22:51:12.863Z,23.12
2022-08-03T22:53:42.387Z,23.06
2022-08-03T22:56:11.671Z,23.01
2022-08-03T22:58:40.964Z,23.00
2022-08-03T23:01:12.135Z,22.97
2022-08-03T23:04:00.713Z,22.91
2022-08-03T23:06:35.300Z,22.88
2022-08-03T23:09:11.906Z,22.81
2022-08-03T23:11:45.461Z,22.74
2022-08-03T23:14:18.422Z,22.65
2022-08-03T23:16:49.035Z,22.58
2022-08-03T23:19:25.341Z,22.52
2022-08-03T23:22:02.500Z,22.52
2022-08-03T23:24:32.525Z,22.53
2022-08-03T23:27:02.272Z,22.52
2022-08-03T23:29:33.201Z,22.47
2022-08-03T23:32:04.526Z,22.44
2022-08-03T23:34:46.990Z,22.41
2022-08-03T23:37:17.714Z,22.38
2022-08-03T23:39:49.353Z,22.38
2022-08-03T23:42:22.903Z,22.38
2022-08-03T23:44:56.561Z,22.34
2022-08-03T23:47:46.711Z,22.33
2022-08-03T23:50:16.811Z,22.28
2022-08-03T23:53:04.484Z,22.25
2022-08-03T23:55:43.627Z,22.23
2022-08-03T23:58:41.094Z,22.18
